CheckWX is a tool to help pilots better visualize weather data.  It is not intended as a substitute for an official pre-flight weather briefing.

09:48:57 UTC

UIII METAR
Irkutsk Airport
Irkutsk, Russian Federation
Current

49 mins ago

UIII 210900Z 19002MPS CAVOK 25/08 Q1015 R12/60D NOSIG RMK QFE719/0959
Observed
Sep-21 @ 09:00 UTC
Wind
  • 190° at 4 KTS
Visibility
10,000+ meters
Flight Rules
VFR
Cloud Levels
  • Clear skies
Temperature
25°C / 77°F
Dewpoint
C / 46°F
Humidity
34%
Altimeter
29.97" Hg
Pressure
1014.92 hPa
Previous

1 hour ago

UIII 210830Z 19003MPS CAVOK 24/10 Q1016 R12/CLRD60 NOSIG RMK QFE719/0959
Observed
Sep-21 @ 08:30 UTC
Wind
  • 190° at 6 KTS
Visibility
10,000+ meters
Flight Rules
VFR
Cloud Levels
  • Clear skies
Temperature
24°C / 75°F
Dewpoint
10°C / 50°F
Humidity
41%
Altimeter
30" Hg
Pressure
1015.92 hPa
Previous

2 hours ago

UIII 210800Z VRB01MPS CAVOK 25/09 Q1016 R12/CLRD60 NOSIG RMK QFE719/0959
Observed
Sep-21 @ 08:00 UTC
Wind
  • Variable at 2 KTS
Visibility
10,000+ meters
Flight Rules
VFR
Cloud Levels
  • Clear skies
Temperature
25°C / 77°F
Dewpoint
C / 48°F
Humidity
36%
Altimeter
30" Hg
Pressure
1015.92 hPa